<?xml version="1.0" encoding="utf-8"?>
<gpx xmlns:xsi="http://www.w3.org/2001/XMLSchema-instance" xmlns:xsd="http://www.w3.org/2001/XMLSchema" version="1.1" creator="Shapelink.com" xmlns="http://www.topografix.com/GPX/1/1" xmlns:gpxtpx="http://www.garmin.com/xmlschemas/TrackPointExtension/v1">
  <metadata>
    <name>Övrigt 1.68 km, 2020-08-14</name>
    <desc></desc>
    <author><name>Marian Moron</name></author> 
    <time>2020-08-14T20:31:15Z</time>
  </metadata>
  <trk>
    <name>Övrigt 1.68 km, 2020-08-14</name>
    <trkseg>
      <trkpt lat="51.229286497894" lon="4.458110657288">
        <ele>6.8</ele>
        <time>2020-08-14T20:31:15Z</time>
      </trkpt>
      <trkpt lat="51.229149621467" lon="4.4580643892">
        <ele>2.6</ele>
        <time>2020-08-14T20:31:34Z</time>
      </trkpt>
      <trkpt lat="51.228983324571" lon="4.458134378065">
        <ele>0</ele>
        <time>2020-08-14T20:31:55Z</time>
      </trkpt>
      <trkpt lat="51.22854503502" lon="4.458259016918">
        <ele>0</ele>
        <time>2020-08-14T20:32:25Z</time>
      </trkpt>
      <trkpt lat="51.228493486335" lon="4.458287599197">
        <ele>0</ele>
        <time>2020-08-14T20:32:40Z</time>
      </trkpt>
      <trkpt lat="51.228415367027" lon="4.458416345181">
        <ele>0</ele>
        <time>2020-08-14T20:32:54Z</time>
      </trkpt>
      <trkpt lat="51.228025692496" lon="4.458730834069">
        <ele>0</ele>
        <time>2020-08-14T20:33:32Z</time>
      </trkpt>
      <trkpt lat="51.227938101641" lon="4.458780706374">
        <ele>0</ele>
        <time>2020-08-14T20:33:44Z</time>
      </trkpt>
      <trkpt lat="51.227504086859" lon="4.458995785928">
        <ele>0</ele>
        <time>2020-08-14T20:34:30Z</time>
      </trkpt>
      <trkpt lat="51.227055990485" lon="4.459179684814">
        <ele>0</ele>
        <time>2020-08-14T20:35:11Z</time>
      </trkpt>
      <trkpt lat="51.226923388827" lon="4.459290996446">
        <ele>0</ele>
        <time>2020-08-14T20:35:30Z</time>
      </trkpt>
      <trkpt lat="51.226500773429" lon="4.459547650224">
        <ele>0</ele>
        <time>2020-08-14T20:36:09Z</time>
      </trkpt>
      <trkpt lat="51.226249064972" lon="4.459508925846">
        <ele>0</ele>
        <time>2020-08-14T20:36:29Z</time>
      </trkpt>
      <trkpt lat="51.225949914961" lon="4.459006598579">
        <ele>2</ele>
        <time>2020-08-14T20:37:06Z</time>
      </trkpt>
      <trkpt lat="51.225944215269" lon="4.458863519546">
        <ele>6.6</ele>
        <time>2020-08-14T20:37:37Z</time>
      </trkpt>
      <trkpt lat="51.225988220244" lon="4.458638297893">
        <ele>14.8</ele>
        <time>2020-08-14T20:37:53Z</time>
      </trkpt>
      <trkpt lat="51.225974557747" lon="4.458531763944">
        <ele>16.4</ele>
        <time>2020-08-14T20:37:58Z</time>
      </trkpt>
      <trkpt lat="51.225928373478" lon="4.458467390952">
        <ele>19</ele>
        <time>2020-08-14T20:38:05Z</time>
      </trkpt>
      <trkpt lat="51.22584103408" lon="4.458432103153">
        <ele>18.2</ele>
        <time>2020-08-14T20:38:14Z</time>
      </trkpt>
      <trkpt lat="51.225613214038" lon="4.458519861646">
        <ele>12.6</ele>
        <time>2020-08-14T20:38:33Z</time>
      </trkpt>
      <trkpt lat="51.225404504728" lon="4.457908150584">
        <ele>6.8</ele>
        <time>2020-08-14T20:39:24Z</time>
      </trkpt>
      <trkpt lat="51.22528699049" lon="4.457906725661">
        <ele>3.8</ele>
        <time>2020-08-14T20:39:44Z</time>
      </trkpt>
      <trkpt lat="51.224904692031" lon="4.45751621294">
        <ele>3.4</ele>
        <time>2020-08-14T20:40:21Z</time>
      </trkpt>
      <trkpt lat="51.224779717902" lon="4.457393082829">
        <ele>3.8</ele>
        <time>2020-08-14T20:40:33Z</time>
      </trkpt>
      <trkpt lat="51.224751470899" lon="4.457359219953">
        <ele>5.2</ele>
        <time>2020-08-14T20:40:37Z</time>
      </trkpt>
      <trkpt lat="51.22455105967" lon="4.456849600433">
        <ele>11.8</ele>
        <time>2020-08-14T20:41:11Z</time>
      </trkpt>
      <trkpt lat="51.224522812667" lon="4.45653720702">
        <ele>10</ele>
        <time>2020-08-14T20:41:44Z</time>
      </trkpt>
      <trkpt lat="51.224712159788" lon="4.455873025264">
        <ele>8</ele>
        <time>2020-08-14T20:42:19Z</time>
      </trkpt>
      <trkpt lat="51.224790279096" lon="4.455615281839">
        <ele>10</ele>
        <time>2020-08-14T20:42:31Z</time>
      </trkpt>
      <trkpt lat="51.22482095685" lon="4.455572198873">
        <ele>10</ele>
        <time>2020-08-14T20:42:34Z</time>
      </trkpt>
      <trkpt lat="51.224850042043" lon="4.45550036599">
        <ele>10.4</ele>
        <time>2020-08-14T20:42:40Z</time>
      </trkpt>
      <trkpt lat="51.224859765047" lon="4.455429455116">
        <ele>10</ele>
        <time>2020-08-14T20:42:44Z</time>
      </trkpt>
      <trkpt lat="51.224906116954" lon="4.455265169876">
        <ele>9.4</ele>
        <time>2020-08-14T20:42:53Z</time>
      </trkpt>
      <trkpt lat="51.22494668535" lon="4.454931486437">
        <ele>6.4</ele>
        <time>2020-08-14T20:43:10Z</time>
      </trkpt>
      <trkpt lat="51.224951965947" lon="4.45488094358">
        <ele>6.4</ele>
        <time>2020-08-14T20:43:13Z</time>
      </trkpt>
      <trkpt lat="51.224791704019" lon="4.454621439956">
        <ele>0</ele>
        <time>2020-08-14T20:43:49Z</time>
      </trkpt>
      <trkpt lat="51.225011561256" lon="4.454580452465">
        <ele>0.6</ele>
        <time>2020-08-14T20:44:10Z</time>
      </trkpt>
      <trkpt lat="51.225014830197" lon="4.454312231665">
        <ele>6</ele>
        <time>2020-08-14T20:44:22Z</time>
      </trkpt>
      <trkpt lat="51.225028744151" lon="4.454297060426">
        <ele>6.6</ele>
        <time>2020-08-14T20:44:24Z</time>
      </trkpt>
      <trkpt lat="51.225081131026" lon="4.454295970779">
        <ele>7.2</ele>
        <time>2020-08-14T20:44:30Z</time>
      </trkpt>
      <trkpt lat="51.22537164768" lon="4.454390099516">
        <ele>13.6</ele>
        <time>2020-08-14T20:45:21Z</time>
      </trkpt>
      <trkpt lat="51.225820246968" lon="4.454449778644">
        <ele>10.8</ele>
        <time>2020-08-14T20:46:02Z</time>
      </trkpt>
      <trkpt lat="51.226019987645" lon="4.454453885775">
        <ele>8.6</ele>
        <time>2020-08-14T20:46:23Z</time>
      </trkpt>
      <trkpt lat="51.226466910553" lon="4.454537704775">
        <ele>6.2</ele>
        <time>2020-08-14T20:47:07Z</time>
      </trkpt>
      <trkpt lat="51.226907463217" lon="4.454386327661">
        <ele>11.8</ele>
        <time>2020-08-14T20:47:40Z</time>
      </trkpt>
      <trkpt lat="51.227126398445" lon="4.454542231001">
        <ele>13.8</ele>
        <time>2020-08-14T20:48:10Z</time>
      </trkpt>
      <trkpt lat="51.2274654463" lon="4.454566287054">
        <ele>10.8</ele>
        <time>2020-08-14T20:48:42Z</time>
      </trkpt>
      <trkpt lat="51.227516072976" lon="4.454581374474">
        <ele>10.2</ele>
        <time>2020-08-14T20:48:47Z</time>
      </trkpt>
      <trkpt lat="51.227677005456" lon="4.454985382054">
        <ele>3.2</ele>
        <time>2020-08-14T20:49:15Z</time>
      </trkpt>
      <trkpt lat="51.227760824456" lon="4.455136842987">
        <ele>0</ele>
        <time>2020-08-14T20:50:26Z</time>
      </trkpt>
      <trkpt lat="51.22791052519" lon="4.455564403706">
        <ele>0.4</ele>
        <time>2020-08-14T20:51:07Z</time>
      </trkpt>
      <trkpt lat="51.228023513202" lon="4.455809909557">
        <ele>0.4</ele>
        <time>2020-08-14T20:51:32Z</time>
      </trkpt>
      <trkpt lat="51.228106829288" lon="4.456042758739">
        <ele>0</ele>
        <time>2020-08-14T20:52:20Z</time>
      </trkpt>
      <trkpt lat="51.22818377513" lon="4.45620193102">
        <ele>0</ele>
        <time>2020-08-14T20:52:36Z</time>
      </trkpt>
      <trkpt lat="51.228213530875" lon="4.45636956902">
        <ele>2.8</ele>
        <time>2020-08-14T20:52:53Z</time>
      </trkpt>
      <trkpt lat="51.228341438669" lon="4.456661762054">
        <ele>7.6</ele>
        <time>2020-08-14T20:53:33Z</time>
      </trkpt>
      <trkpt lat="51.228480829666" lon="4.457048922015">
        <ele>3.4</ele>
        <time>2020-08-14T20:54:21Z</time>
      </trkpt>
      <trkpt lat="51.228419474158" lon="4.45772324587">
        <ele>0</ele>
        <time>2020-08-14T20:55:07Z</time>
      </trkpt>
      <trkpt lat="51.228469933196" lon="4.458027257383">
        <ele>0</ele>
        <time>2020-08-14T20:55:28Z</time>
      </trkpt>
      <trkpt lat="51.228543610097" lon="4.45811803336">
        <ele>0</ele>
        <time>2020-08-14T20:55:40Z</time>
      </trkpt>
      <trkpt lat="51.228995226869" lon="4.458107053071">
        <ele>0</ele>
        <time>2020-08-14T20:56:20Z</time>
      </trkpt>
      <trkpt lat="51.229309296662" lon="4.457976882164">
        <ele>17.6</ele>
        <time>2020-08-14T20:57:07Z</time>
      </trkpt>
      <trkpt lat="51.229413567498" lon="4.457961375649">
        <ele>18.4</ele>
        <time>2020-08-14T20:57:20Z</time>
      </trkpt>
      <trkpt lat="51.229449525849" lon="4.457956514147">
        <ele>17.8</ele>
        <time>2020-08-14T20:57:24Z</time>
      </trkpt>
    </trkseg>
  </trk>
</gpx>